sensor_id;sensor_type;location;lat;lon;timestamp;temperature;humidity
20528;DHT22;23612;50.894;10.700;2023-05-15T00:02:19;9.10;99.90
20528;DHT22;23612;50.894;10.700;2023-05-15T00:04:45;9.10;99.90
20528;DHT22;23612;50.894;10.700;2023-05-15T00:07:10;9.00;99.90
20528;DHT22;23612;50.894;10.700;2023-05-15T00:09:36;8.90;99.90
20528;DHT22;23612;50.894;10.700;2023-05-15T00:12:02;8.90;99.90
20528;DHT22;23612;50.894;10.700;2023-05-15T00:14:27;9.00;99.90
20528;DHT22;23612;50.894;10.700;2023-05-15T00:16:53;9.00;99.90
20528;DHT22;23612;50.894;10.700;2023-05-15T00:19:18;8.90;99.90
20528;DHT22;23612;50.894;10.700;2023-05-15T00:21:44;8.90;99.90
20528;DHT22;23612;50.894;10.700;2023-05-15T00:24:10;8.80;99.90
20528;DHT22;23612;50.894;10.700;2023-05-15T00:26:35;8.80;99.90
20528;DHT22;23612;50.894;10.700;2023-05-15T00:29:01;8.70;99.90
20528;DHT22;23612;50.894;10.700;2023-05-15T00:31:26;8.60;99.90
20528;DHT22;23612;50.894;10.700;2023-05-15T00:33:52;8.60;99.90
20528;DHT22;23612;50.894;10.700;2023-05-15T00:36:17;8.50;99.90
20528;DHT22;23612;50.894;10.700;2023-05-15T00:38:45;8.50;99.90
20528;DHT22;23612;50.894;10.700;2023-05-15T00:41:11;8.50;99.90
20528;DHT22;23612;50.894;10.700;2023-05-15T00:43:38;8.50;99.90
20528;DHT22;23612;50.894;10.700;2023-05-15T00:46:06;8.50;99.90
20528;DHT22;23612;50.894;10.700;2023-05-15T00:48:32;8.50;99.90
20528;DHT22;23612;50.894;10.700;2023-05-15T00:50:58;8.50;99.90
20528;DHT22;23612;50.894;10.700;2023-05-15T00:53:27;8.50;99.90
20528;DHT22;23612;50.894;10.700;2023-05-15T00:55:57;8.50;99.90
20528;DHT22;23612;50.894;10.700;2023-05-15T00:58:26;8.60;99.90
20528;DHT22;23612;50.894;10.700;2023-05-15T01:00:52;8.60;99.90
20528;DHT22;23612;50.894;10.700;2023-05-15T01:03:17;8.60;99.90
20528;DHT22;23612;50.894;10.700;2023-05-15T01:05:43;8.50;99.90
20528;DHT22;23612;50.894;10.700;2023-05-15T01:08:15;8.40;99.90
20528;DHT22;23612;50.894;10.700;2023-05-15T01:10:43;8.40;99.90
20528;DHT22;23612;50.894;10.700;2023-05-15T01:13:10;8.30;99.90
20528;DHT22;23612;50.894;10.700;2023-05-15T01:15:38;8.30;99.90
20528;DHT22;23612;50.894;10.700;2023-05-15T01:18:03;8.30;99.90
20528;DHT22;23612;50.894;10.700;2023-05-15T01:20:33;8.20;99.90
20528;DHT22;23612;50.894;10.700;2023-05-15T01:23:26;8.20;99.90
20528;DHT22;23612;50.894;10.700;2023-05-15T01:26:23;8.10;99.90
20528;DHT22;23612;50.894;10.700;2023-05-15T01:29:00;8.10;99.90
20528;DHT22;23612;50.894;10.700;2023-05-15T01:31:30;8.10;99.90
20528;DHT22;23612;50.894;10.700;2023-05-15T01:34:02;8.00;99.90
20528;DHT22;23612;50.894;10.700;2023-05-15T01:36:38;8.00;99.90
20528;DHT22;23612;50.894;10.700;2023-05-15T01:39:06;7.90;99.90
20528;DHT22;23612;50.894;10.700;2023-05-15T01:41:45;7.90;99.90
20528;DHT22;23612;50.894;10.700;2023-05-15T01:44:35;7.90;99.90
20528;DHT22;23612;50.894;10.700;2023-05-15T01:47:06;7.90;99.90
20528;DHT22;23612;50.894;10.700;2023-05-15T01:49:32;7.80;99.90
20528;DHT22;23612;50.894;10.700;2023-05-15T01:52:10;7.80;99.90
20528;DHT22;23612;50.894;10.700;2023-05-15T01:54:38;7.80;99.90
20528;DHT22;23612;50.894;10.700;2023-05-15T01:57:05;7.80;99.90
20528;DHT22;23612;50.894;10.700;2023-05-15T01:59:32;7.80;99.90
20528;DHT22;23612;50.894;10.700;2023-05-15T02:01:59;7.90;99.90
20528;DHT22;23612;50.894;10.700;2023-05-15T02:04:25;7.90;99.90
20528;DHT22;23612;50.894;10.700;2023-05-15T02:06:51;7.80;99.90
20528;DHT22;23612;50.894;10.700;2023-05-15T02:09:19;7.90;99.90
20528;DHT22;23612;50.894;10.700;2023-05-15T02:11:46;7.80;99.90
20528;DHT22;23612;50.894;10.700;2023-05-15T02:14:12;7.70;99.90
20528;DHT22;23612;50.894;10.700;2023-05-15T02:16:39;7.70;99.90
20528;DHT22;23612;50.894;10.700;2023-05-15T02:19:04;7.60;99.90
20528;DHT22;23612;50.894;10.700;2023-05-15T02:21:30;7.50;99.90
20528;DHT22;23612;50.894;10.700;2023-05-15T02:23:55;7.50;99.90
20528;DHT22;23612;50.894;10.700;2023-05-15T02:29:58;7.40;99.90
20528;DHT22;23612;50.894;10.700;2023-05-15T02:32:25;7.40;99.90
20528;DHT22;23612;50.894;10.700;2023-05-15T02:37:55;7.30;99.90
20528;DHT22;23612;50.894;10.700;2023-05-15T02:40:24;7.40;99.90
20528;DHT22;23612;50.894;10.700;2023-05-15T02:42:52;7.30;99.90
20528;DHT22;23612;50.894;10.700;2023-05-15T02:45:18;7.30;99.90
20528;DHT22;23612;50.894;10.700;2023-05-15T02:47:45;7.30;99.90
20528;DHT22;23612;50.894;10.700;2023-05-15T02:50:11;7.30;99.90
20528;DHT22;23612;50.894;10.700;2023-05-15T02:52:36;7.20;99.90
20528;DHT22;23612;50.894;10.700;2023-05-15T02:55:02;7.20;99.90
20528;DHT22;23612;50.894;10.700;2023-05-15T02:57:28;7.20;99.90
20528;DHT22;23612;50.894;10.700;2023-05-15T02:59:54;7.20;99.90
20528;DHT22;23612;50.894;10.700;2023-05-15T03:02:21;7.20;99.90
20528;DHT22;23612;50.894;10.700;2023-05-15T03:04:46;7.20;99.90
20528;DHT22;23612;50.894;10.700;2023-05-15T03:07:12;7.10;99.90
20528;DHT22;23612;50.894;10.700;2023-05-15T03:09:39;7.10;99.90
20528;DHT22;23612;50.894;10.700;2023-05-15T03:12:04;7.10;99.90
20528;DHT22;23612;50.894;10.700;2023-05-15T03:14:30;7.20;99.90
20528;DHT22;23612;50.894;10.700;2023-05-15T03:16:55;7.20;99.90
20528;DHT22;23612;50.894;10.700;2023-05-15T03:19:21;7.20;99.90
20528;DHT22;23612;50.894;10.700;2023-05-15T03:21:46;7.30;99.90
20528;DHT22;23612;50.894;10.700;2023-05-15T03:24:12;7.20;99.90
20528;DHT22;23612;50.894;10.700;2023-05-15T03:26:37;7.20;99.90
20528;DHT22;23612;50.894;10.700;2023-05-15T03:29:04;7.20;99.90
20528;DHT22;23612;50.894;10.700;2023-05-15T03:31:30;7.20;99.90
20528;DHT22;23612;50.894;10.700;2023-05-15T03:33:55;7.20;99.90
20528;DHT22;23612;50.894;10.700;2023-05-15T03:36:21;7.20;99.90
20528;DHT22;23612;50.894;10.700;2023-05-15T03:38:46;7.10;99.90
20528;DHT22;23612;50.894;10.700;2023-05-15T03:41:12;7.10;99.90
20528;DHT22;23612;50.894;10.700;2023-05-15T03:43:37;7.00;99.90
20528;DHT22;23612;50.894;10.700;2023-05-15T03:46:04;7.00;99.90
20528;DHT22;23612;50.894;10.700;2023-05-15T03:48:30;7.00;99.90
20528;DHT22;23612;50.894;10.700;2023-05-15T03:50:55;7.00;99.90
20528;DHT22;23612;50.894;10.700;2023-05-15T03:53:21;7.00;99.90
20528;DHT22;23612;50.894;10.700;2023-05-15T03:55:47;7.00;99.90
20528;DHT22;23612;50.894;10.700;2023-05-15T03:58:13;7.00;99.90
20528;DHT22;23612;50.894;10.700;2023-05-15T04:00:38;7.00;99.90
20528;DHT22;23612;50.894;10.700;2023-05-15T04:03:03;7.00;99.90
20528;DHT22;23612;50.894;10.700;2023-05-15T04:05:29;7.10;99.90
20528;DHT22;23612;50.894;10.700;2023-05-15T04:07:55;7.10;99.90
20528;DHT22;23612;50.894;10.700;2023-05-15T04:10:20;7.20;99.90
20528;DHT22;23612;50.894;10.700;2023-05-15T04:12:46;7.20;99.90
20528;DHT22;23612;50.894;10.700;2023-05-15T04:15:20;7.20;99.90
20528;DHT22;23612;50.894;10.700;2023-05-15T04:17:47;7.20;99.90
20528;DHT22;23612;50.894;10.700;2023-05-15T04:20:14;7.30;99.90
20528;DHT22;23612;50.894;10.700;2023-05-15T04:22:41;7.30;99.90
20528;DHT22;23612;50.894;10.700;2023-05-15T04:25:07;7.30;99.90
20528;DHT22;23612;50.894;10.700;2023-05-15T04:27:33;7.30;99.90
20528;DHT22;23612;50.894;10.700;2023-05-15T04:29:59;7.40;99.90
20528;DHT22;23612;50.894;10.700;2023-05-15T04:32:25;7.40;99.90
20528;DHT22;23612;50.894;10.700;2023-05-15T04:34:52;7.50;99.90
20528;DHT22;23612;50.894;10.700;2023-05-15T04:37:17;7.50;99.90
20528;DHT22;23612;50.894;10.700;2023-05-15T04:39:43;7.60;99.90
20528;DHT22;23612;50.894;10.700;2023-05-15T04:42:08;7.70;99.90
20528;DHT22;23612;50.894;10.700;2023-05-15T04:44:33;7.80;99.90
20528;DHT22;23612;50.894;10.700;2023-05-15T04:46:59;7.90;99.90
20528;DHT22;23612;50.894;10.700;2023-05-15T04:49:24;7.90;99.90
20528;DHT22;23612;50.894;10.700;2023-05-15T04:51:50;7.90;99.90
20528;DHT22;23612;50.894;10.700;2023-05-15T04:54:15;8.00;99.90
20528;DHT22;23612;50.894;10.700;2023-05-15T04:56:41;8.20;99.90
20528;DHT22;23612;50.894;10.700;2023-05-15T04:59:06;8.30;99.90
20528;DHT22;23612;50.894;10.700;2023-05-15T05:01:32;8.50;99.90
20528;DHT22;23612;50.894;10.700;2023-05-15T05:03:57;8.70;99.90
20528;DHT22;23612;50.894;10.700;2023-05-15T05:06:23;8.90;99.90
20528;DHT22;23612;50.894;10.700;2023-05-15T05:08:48;9.10;99.90
20528;DHT22;23612;50.894;10.700;2023-05-15T05:11:14;9.40;99.90
20528;DHT22;23612;50.894;10.700;2023-05-15T05:13:39;9.60;99.90
20528;DHT22;23612;50.894;10.700;2023-05-15T05:16:06;9.80;99.90
20528;DHT22;23612;50.894;10.700;2023-05-15T05:18:31;10.00;99.90
20528;DHT22;23612;50.894;10.700;2023-05-15T05:21:01;10.30;99.90
20528;DHT22;23612;50.894;10.700;2023-05-15T05:23:27;10.70;99.90
20528;DHT22;23612;50.894;10.700;2023-05-15T05:25:53;11.00;99.90
20528;DHT22;23612;50.894;10.700;2023-05-15T05:28:18;11.40;99.90
20528;DHT22;23612;50.894;10.700;2023-05-15T05:30:44;11.70;99.90
20528;DHT22;23612;50.894;10.700;2023-05-15T05:33:10;12.00;99.90
20528;DHT22;23612;50.894;10.700;2023-05-15T05:35:36;12.40;99.90
20528;DHT22;23612;50.894;10.700;2023-05-15T05:38:02;12.70;99.90
20528;DHT22;23612;50.894;10.700;2023-05-15T05:40:27;13.00;99.90
20528;DHT22;23612;50.894;10.700;2023-05-15T05:42:53;13.20;99.90
20528;DHT22;23612;50.894;10.700;2023-05-15T05:45:18;13.60;99.90
20528;DHT22;23612;50.894;10.700;2023-05-15T05:47:44;13.90;99.90
20528;DHT22;23612;50.894;10.700;2023-05-15T05:50:10;14.20;99.90
20528;DHT22;23612;50.894;10.700;2023-05-15T05:52:35;14.50;99.90
20528;DHT22;23612;50.894;10.700;2023-05-15T05:55:01;14.70;99.90
20528;DHT22;23612;50.894;10.700;2023-05-15T05:57:26;15.00;99.90
20528;DHT22;23612;50.894;10.700;2023-05-15T05:59:52;15.30;99.90
20528;DHT22;23612;50.894;10.700;2023-05-15T06:02:17;15.50;99.90
20528;DHT22;23612;50.894;10.700;2023-05-15T06:04:43;15.80;99.90
20528;DHT22;23612;50.894;10.700;2023-05-15T06:07:08;16.20;99.90
20528;DHT22;23612;50.894;10.700;2023-05-15T06:09:34;16.50;99.90
20528;DHT22;23612;50.894;10.700;2023-05-15T06:11:59;16.90;99.90
20528;DHT22;23612;50.894;10.700;2023-05-15T06:14:25;17.10;99.90
20528;DHT22;23612;50.894;10.700;2023-05-15T06:16:51;17.60;99.90
20528;DHT22;23612;50.894;10.700;2023-05-15T06:19:17;17.80;99.90
20528;DHT22;23612;50.894;10.700;2023-05-15T06:21:42;18.10;99.90
20528;DHT22;23612;50.894;10.700;2023-05-15T06:24:08;18.20;99.90
20528;DHT22;23612;50.894;10.700;2023-05-15T06:26:33;18.30;99.90
20528;DHT22;23612;50.894;10.700;2023-05-15T06:28:59;18.20;99.90
20528;DHT22;23612;50.894;10.700;2023-05-15T06:31:24;18.40;99.90
20528;DHT22;23612;50.894;10.700;2023-05-15T06:33:50;18.90;99.90
20528;DHT22;23612;50.894;10.700;2023-05-15T06:36:15;18.90;99.90
20528;DHT22;23612;50.894;10.700;2023-05-15T06:38:41;18.60;99.90
20528;DHT22;23612;50.894;10.700;2023-05-15T06:41:06;19.00;99.90
20528;DHT22;23612;50.894;10.700;2023-05-15T06:43:32;18.90;99.90
20528;DHT22;23612;50.894;10.700;2023-05-15T06:45:57;19.30;99.90
20528;DHT22;23612;50.894;10.700;2023-05-15T06:48:23;19.20;99.90
20528;DHT22;23612;50.894;10.700;2023-05-15T06:50:48;19.10;99.90
20528;DHT22;23612;50.894;10.700;2023-05-15T06:53:14;19.40;99.90
20528;DHT22;23612;50.894;10.700;2023-05-15T06:55:41;19.10;99.90
20528;DHT22;23612;50.894;10.700;2023-05-15T06:58:07;19.60;99.90
20528;DHT22;23612;50.894;10.700;2023-05-15T07:00:32;20.50;99.90
20528;DHT22;23612;50.894;10.700;2023-05-15T07:02:58;20.60;99.90
20528;DHT22;23612;50.894;10.700;2023-05-15T07:05:23;21.00;99.90
20528;DHT22;23612;50.894;10.700;2023-05-15T07:07:49;21.30;99.90
20528;DHT22;23612;50.894;10.700;2023-05-15T07:10:14;21.40;99.90
20528;DHT22;23612;50.894;10.700;2023-05-15T07:12:40;21.00;99.90
20528;DHT22;23612;50.894;10.700;2023-05-15T07:15:06;21.30;99.90
20528;DHT22;23612;50.894;10.700;2023-05-15T07:17:32;21.40;99.90
20528;DHT22;23612;50.894;10.700;2023-05-15T07:19:58;21.80;99.90
20528;DHT22;23612;50.894;10.700;2023-05-15T07:22:26;21.50;99.90
20528;DHT22;23612;50.894;10.700;2023-05-15T07:24:52;21.00;99.90
20528;DHT22;23612;50.894;10.700;2023-05-15T07:27:17;20.40;99.90
20528;DHT22;23612;50.894;10.700;2023-05-15T07:29:43;19.90;99.90
20528;DHT22;23612;50.894;10.700;2023-05-15T07:32:08;19.60;99.90
20528;DHT22;23612;50.894;10.700;2023-05-15T07:34:34;19.70;99.90
20528;DHT22;23612;50.894;10.700;2023-05-15T07:36:59;19.70;99.90
20528;DHT22;23612;50.894;10.700;2023-05-15T07:39:25;19.50;99.90
20528;DHT22;23612;50.894;10.700;2023-05-15T07:41:50;19.60;99.90
20528;DHT22;23612;50.894;10.700;2023-05-15T07:44:15;19.50;99.90
20528;DHT22;23612;50.894;10.700;2023-05-15T07:46:41;19.40;99.90
20528;DHT22;23612;50.894;10.700;2023-05-15T07:49:07;19.30;99.90
20528;DHT22;23612;50.894;10.700;2023-05-15T07:51:32;19.40;99.90
20528;DHT22;23612;50.894;10.700;2023-05-15T07:53:57;18.80;99.90
20528;DHT22;23612;50.894;10.700;2023-05-15T07:56:23;18.80;99.90
20528;DHT22;23612;50.894;10.700;2023-05-15T07:58:49;19.10;99.90
20528;DHT22;23612;50.894;10.700;2023-05-15T08:01:14;19.80;99.90
20528;DHT22;23612;50.894;10.700;2023-05-15T08:03:40;20.70;99.90
20528;DHT22;23612;50.894;10.700;2023-05-15T08:06:05;21.90;99.90
20528;DHT22;23612;50.894;10.700;2023-05-15T08:08:32;22.20;99.90
20528;DHT22;23612;50.894;10.700;2023-05-15T08:10:58;22.80;99.90
20528;DHT22;23612;50.894;10.700;2023-05-15T08:13:23;22.80;99.90
20528;DHT22;23612;50.894;10.700;2023-05-15T08:15:49;23.40;99.90
20528;DHT22;23612;50.894;10.700;2023-05-15T08:18:14;23.40;99.90
20528;DHT22;23612;50.894;10.700;2023-05-15T08:20:40;23.80;99.90
20528;DHT22;23612;50.894;10.700;2023-05-15T08:23:06;23.70;99.90
20528;DHT22;23612;50.894;10.700;2023-05-15T08:25:31;23.20;99.90
20528;DHT22;23612;50.894;10.700;2023-05-15T08:27:57;23.00;99.90
20528;DHT22;23612;50.894;10.700;2023-05-15T08:30:22;22.80;99.90
20528;DHT22;23612;50.894;10.700;2023-05-15T08:32:48;22.60;99.90
20528;DHT22;23612;50.894;10.700;2023-05-15T08:35:13;22.30;99.90
20528;DHT22;23612;50.894;10.700;2023-05-15T08:37:39;23.30;99.90
20528;DHT22;23612;50.894;10.700;2023-05-15T08:40:05;23.90;99.90
20528;DHT22;23612;50.894;10.700;2023-05-15T08:42:41;24.50;99.90
20528;DHT22;23612;50.894;10.700;2023-05-15T08:45:08;25.40;99.90
20528;DHT22;23612;50.894;10.700;2023-05-15T08:47:36;25.70;99.90
20528;DHT22;23612;50.894;10.700;2023-05-15T08:50:09;25.90;99.60
20528;DHT22;23612;50.894;10.700;2023-05-15T08:52:46;25.50;97.80
20528;DHT22;23612;50.894;10.700;2023-05-15T08:55:15;25.90;97.50
20528;DHT22;23612;50.894;10.700;2023-05-15T08:57:42;26.00;98.00
20528;DHT22;23612;50.894;10.700;2023-05-15T09:00:09;26.00;96.70
20528;DHT22;23612;50.894;10.700;2023-05-15T09:02:39;25.30;96.20
20528;DHT22;23612;50.894;10.700;2023-05-15T09:05:05;25.80;97.10
20528;DHT22;23612;50.894;10.700;2023-05-15T09:07:32;26.50;96.50
20528;DHT22;23612;50.894;10.700;2023-05-15T09:09:57;26.80;95.20
20528;DHT22;23612;50.894;10.700;2023-05-15T09:12:24;26.40;95.70
20528;DHT22;23612;50.894;10.700;2023-05-15T09:14:50;26.50;94.20
20528;DHT22;23612;50.894;10.700;2023-05-15T09:17:16;26.20;94.30
20528;DHT22;23612;50.894;10.700;2023-05-15T09:19:42;26.30;92.60
20528;DHT22;23612;50.894;10.700;2023-05-15T09:22:17;26.00;93.70
20528;DHT22;23612;50.894;10.700;2023-05-15T09:24:48;26.30;95.20
20528;DHT22;23612;50.894;10.700;2023-05-15T09:27:15;26.20;92.10
20528;DHT22;23612;50.894;10.700;2023-05-15T09:29:41;25.60;88.60
20528;DHT22;23612;50.894;10.700;2023-05-15T09:32:08;25.70;90.20
20528;DHT22;23612;50.894;10.700;2023-05-15T09:34:36;25.90;92.50
20528;DHT22;23612;50.894;10.700;2023-05-15T09:37:03;25.90;92.80
20528;DHT22;23612;50.894;10.700;2023-05-15T09:39:29;25.60;92.20
20528;DHT22;23612;50.894;10.700;2023-05-15T09:42:05;24.50;91.00
20528;DHT22;23612;50.894;10.700;2023-05-15T09:44:31;24.60;91.20
20528;DHT22;23612;50.894;10.700;2023-05-15T09:46:58;24.90;91.60
20528;DHT22;23612;50.894;10.700;2023-05-15T09:49:23;24.70;90.50
20528;DHT22;23612;50.894;10.700;2023-05-15T09:51:49;24.20;91.40
20528;DHT22;23612;50.894;10.700;2023-05-15T09:54:18;23.70;92.80
20528;DHT22;23612;50.894;10.700;2023-05-15T09:56:45;23.40;91.60
20528;DHT22;23612;50.894;10.700;2023-05-15T09:59:16;23.80;91.20
20528;DHT22;23612;50.894;10.700;2023-05-15T10:01:46;24.20;90.90
20528;DHT22;23612;50.894;10.700;2023-05-15T10:04:12;23.90;91.80
20528;DHT22;23612;50.894;10.700;2023-05-15T10:06:41;23.20;94.40
20528;DHT22;23612;50.894;10.700;2023-05-15T10:09:07;22.30;98.50
20528;DHT22;23612;50.894;10.700;2023-05-15T10:11:38;21.30;99.90
20528;DHT22;23612;50.894;10.700;2023-05-15T10:14:09;20.30;99.90
20528;DHT22;23612;50.894;10.700;2023-05-15T10:16:36;19.80;99.90
20528;DHT22;23612;50.894;10.700;2023-05-15T10:19:04;19.10;99.90
20528;DHT22;23612;50.894;10.700;2023-05-15T10:21:38;18.80;99.90
20528;DHT22;23612;50.894;10.700;2023-05-15T10:24:04;18.40;99.90
20528;DHT22;23612;50.894;10.700;2023-05-15T10:28:59;18.20;99.90
20528;DHT22;23612;50.894;10.700;2023-05-15T10:31:25;18.20;99.90
20528;DHT22;23612;50.894;10.700;2023-05-15T10:33:51;18.20;99.90
20528;DHT22;23612;50.894;10.700;2023-05-15T10:36:18;18.30;99.90
20528;DHT22;23612;50.894;10.700;2023-05-15T10:38:45;18.50;99.90
20528;DHT22;23612;50.894;10.700;2023-05-15T10:41:12;18.40;99.90
20528;DHT22;23612;50.894;10.700;2023-05-15T10:43:39;18.40;99.90
20528;DHT22;23612;50.894;10.700;2023-05-15T10:46:06;18.80;99.90
20528;DHT22;23612;50.894;10.700;2023-05-15T10:48:33;19.10;99.90
20528;DHT22;23612;50.894;10.700;2023-05-15T10:50:59;19.30;99.90
20528;DHT22;23612;50.894;10.700;2023-05-15T10:53:25;19.60;99.90
20528;DHT22;23612;50.894;10.700;2023-05-15T10:55:51;20.10;99.90
20528;DHT22;23612;50.894;10.700;2023-05-15T10:58:20;20.60;99.90
20528;DHT22;23612;50.894;10.700;2023-05-15T11:00:46;20.90;99.90
20528;DHT22;23612;50.894;10.700;2023-05-15T11:03:15;21.40;99.90
20528;DHT22;23612;50.894;10.700;2023-05-15T11:06:09;21.80;99.90
20528;DHT22;23612;50.894;10.700;2023-05-15T11:08:36;22.10;99.10
20528;DHT22;23612;50.894;10.700;2023-05-15T11:11:02;22.10;98.20
20528;DHT22;23612;50.894;10.700;2023-05-15T11:21:47;23.10;95.00
20528;DHT22;23612;50.894;10.700;2023-05-15T11:24:12;23.30;95.50
20528;DHT22;23612;50.894;10.700;2023-05-15T11:26:40;23.00;95.60
20528;DHT22;23612;50.894;10.700;2023-05-15T11:29:17;22.40;95.70
20528;DHT22;23612;50.894;10.700;2023-05-15T11:31:43;21.50;97.00
20528;DHT22;23612;50.894;10.700;2023-05-15T11:34:08;20.90;96.00
20528;DHT22;23612;50.894;10.700;2023-05-15T11:36:36;20.60;99.10
20528;DHT22;23612;50.894;10.700;2023-05-15T11:39:09;20.90;99.00
20528;DHT22;23612;50.894;10.700;2023-05-15T11:41:36;22.10;97.60
20528;DHT22;23612;50.894;10.700;2023-05-15T11:44:02;23.00;94.00
20528;DHT22;23612;50.894;10.700;2023-05-15T11:46:27;24.30;92.10
20528;DHT22;23612;50.894;10.700;2023-05-15T11:48:53;25.00;86.40
20528;DHT22;23612;50.894;10.700;2023-05-15T11:51:23;25.90;84.10
20528;DHT22;23612;50.894;10.700;2023-05-15T11:53:51;26.10;82.40
20528;DHT22;23612;50.894;10.700;2023-05-15T11:56:21;26.60;80.30
20528;DHT22;23612;50.894;10.700;2023-05-15T11:58:54;26.90;83.60
20528;DHT22;23612;50.894;10.700;2023-05-15T12:01:19;27.40;80.20
20528;DHT22;23612;50.894;10.700;2023-05-15T12:03:48;27.80;77.70
20528;DHT22;23612;50.894;10.700;2023-05-15T12:06:14;27.90;76.10
20528;DHT22;23612;50.894;10.700;2023-05-15T12:08:40;27.80;74.80
20528;DHT22;23612;50.894;10.700;2023-05-15T12:11:10;27.70;74.40
20528;DHT22;23612;50.894;10.700;2023-05-15T12:13:36;27.30;74.50
20528;DHT22;23612;50.894;10.700;2023-05-15T12:16:02;26.00;77.90
20528;DHT22;23612;50.894;10.700;2023-05-15T12:18:30;25.00;77.90
20528;DHT22;23612;50.894;10.700;2023-05-15T12:20:56;24.40;80.10
20528;DHT22;23612;50.894;10.700;2023-05-15T12:23:23;24.10;82.70
20528;DHT22;23612;50.894;10.700;2023-05-15T12:25:51;24.40;84.00
20528;DHT22;23612;50.894;10.700;2023-05-15T12:28:19;24.30;83.70
20528;DHT22;23612;50.894;10.700;2023-05-15T12:30:45;24.40;80.70
20528;DHT22;23612;50.894;10.700;2023-05-15T12:33:11;24.80;83.80
20528;DHT22;23612;50.894;10.700;2023-05-15T12:35:41;25.00;81.30
20528;DHT22;23612;50.894;10.700;2023-05-15T12:38:07;25.50;78.00
20528;DHT22;23612;50.894;10.700;2023-05-15T12:40:33;25.90;77.90
20528;DHT22;23612;50.894;10.700;2023-05-15T12:43:04;26.10;78.70
20528;DHT22;23612;50.894;10.700;2023-05-15T12:45:30;25.40;79.30
20528;DHT22;23612;50.894;10.700;2023-05-15T12:47:57;24.50;79.90
20528;DHT22;23612;50.894;10.700;2023-05-15T12:50:24;23.70;86.40
20528;DHT22;23612;50.894;10.700;2023-05-15T12:52:56;22.60;90.70
20528;DHT22;23612;50.894;10.700;2023-05-15T12:55:24;21.30;92.80
20528;DHT22;23612;50.894;10.700;2023-05-15T12:57:51;20.60;96.30
20528;DHT22;23612;50.894;10.700;2023-05-15T13:00:17;20.00;97.10
20528;DHT22;23612;50.894;10.700;2023-05-15T13:02:47;19.80;99.40
20528;DHT22;23612;50.894;10.700;2023-05-15T13:05:13;19.50;99.90
20528;DHT22;23612;50.894;10.700;2023-05-15T13:07:42;19.40;99.90
20528;DHT22;23612;50.894;10.700;2023-05-15T13:10:08;19.20;99.90
20528;DHT22;23612;50.894;10.700;2023-05-15T13:12:53;19.00;99.90
20528;DHT22;23612;50.894;10.700;2023-05-15T13:15:27;19.00;99.90
20528;DHT22;23612;50.894;10.700;2023-05-15T13:20:36;19.30;99.90
20528;DHT22;23612;50.894;10.700;2023-05-15T13:23:02;19.80;99.90
20528;DHT22;23612;50.894;10.700;2023-05-15T13:25:28;20.40;99.90
20528;DHT22;23612;50.894;10.700;2023-05-15T13:27:57;20.90;99.90
20528;DHT22;23612;50.894;10.700;2023-05-15T13:30:22;21.30;99.90
20528;DHT22;23612;50.894;10.700;2023-05-15T13:32:48;21.30;99.90
20528;DHT22;23612;50.894;10.700;2023-05-15T13:35:13;21.30;97.10
20528;DHT22;23612;50.894;10.700;2023-05-15T13:37:39;20.90;95.30
20528;DHT22;23612;50.894;10.700;2023-05-15T13:40:07;20.60;95.70
20528;DHT22;23612;50.894;10.700;2023-05-15T13:42:36;20.10;96.50
20528;DHT22;23612;50.894;10.700;2023-05-15T13:45:06;19.90;95.40
20528;DHT22;23612;50.894;10.700;2023-05-15T13:47:31;20.10;95.80
20528;DHT22;23612;50.894;10.700;2023-05-15T13:49:57;20.30;94.80
20528;DHT22;23612;50.894;10.700;2023-05-15T13:52:23;20.60;95.00
20528;DHT22;23612;50.894;10.700;2023-05-15T13:54:48;20.70;95.10
20528;DHT22;23612;50.894;10.700;2023-05-15T13:57:14;20.80;97.10
20528;DHT22;23612;50.894;10.700;2023-05-15T13:59:39;21.00;98.10
20528;DHT22;23612;50.894;10.700;2023-05-15T14:02:05;21.10;96.70
20528;DHT22;23612;50.894;10.700;2023-05-15T14:04:31;21.20;96.30
20528;DHT22;23612;50.894;10.700;2023-05-15T14:06:56;20.90;95.20
20528;DHT22;23612;50.894;10.700;2023-05-15T14:09:22;20.60;96.20
20528;DHT22;23612;50.894;10.700;2023-05-15T14:11:47;20.50;96.60
20528;DHT22;23612;50.894;10.700;2023-05-15T14:14:13;20.50;98.30
20528;DHT22;23612;50.894;10.700;2023-05-15T14:16:38;20.40;96.70
20528;DHT22;23612;50.894;10.700;2023-05-15T14:19:03;20.40;97.50
20528;DHT22;23612;50.894;10.700;2023-05-15T14:21:29;20.50;97.60
20528;DHT22;23612;50.894;10.700;2023-05-15T14:23:55;20.70;96.90
20528;DHT22;23612;50.894;10.700;2023-05-15T14:26:21;20.40;95.50
20528;DHT22;23612;50.894;10.700;2023-05-15T14:28:46;20.40;97.30
20528;DHT22;23612;50.894;10.700;2023-05-15T14:31:12;20.60;96.90
20528;DHT22;23612;50.894;10.700;2023-05-15T14:33:38;20.60;96.40
20528;DHT22;23612;50.894;10.700;2023-05-15T14:36:04;20.60;96.50
20528;DHT22;23612;50.894;10.700;2023-05-15T14:38:29;20.50;96.50
20528;DHT22;23612;50.894;10.700;2023-05-15T14:40:55;20.50;97.20
20528;DHT22;23612;50.894;10.700;2023-05-15T14:43:20;20.40;95.60
20528;DHT22;23612;50.894;10.700;2023-05-15T14:45:49;20.40;96.70
20528;DHT22;23612;50.894;10.700;2023-05-15T14:48:15;20.60;97.00
20528;DHT22;23612;50.894;10.700;2023-05-15T14:50:41;20.70;96.30
20528;DHT22;23612;50.894;10.700;2023-05-15T14:53:06;20.70;95.80
20528;DHT22;23612;50.894;10.700;2023-05-15T14:55:32;20.70;96.20
20528;DHT22;23612;50.894;10.700;2023-05-15T14:57:57;20.70;94.50
20528;DHT22;23612;50.894;10.700;2023-05-15T15:00:23;20.60;95.50
20528;DHT22;23612;50.894;10.700;2023-05-15T15:02:48;20.50;95.90
20528;DHT22;23612;50.894;10.700;2023-05-15T15:05:14;20.50;96.30
20528;DHT22;23612;50.894;10.700;2023-05-15T15:08:03;20.50;95.70
20528;DHT22;23612;50.894;10.700;2023-05-15T15:10:31;20.40;96.20
20528;DHT22;23612;50.894;10.700;2023-05-15T15:12:57;20.20;96.20
20528;DHT22;23612;50.894;10.700;2023-05-15T15:15:23;20.30;96.70
20528;DHT22;23612;50.894;10.700;2023-05-15T15:17:49;20.10;96.40
20528;DHT22;23612;50.894;10.700;2023-05-15T15:20:16;19.90;96.30
20528;DHT22;23612;50.894;10.700;2023-05-15T15:22:42;20.00;97.20
20528;DHT22;23612;50.894;10.700;2023-05-15T15:25:08;20.10;97.20
20528;DHT22;23612;50.894;10.700;2023-05-15T15:27:34;20.40;99.00
20528;DHT22;23612;50.894;10.700;2023-05-15T15:30:02;20.70;97.70
20528;DHT22;23612;50.894;10.700;2023-05-15T15:32:29;20.80;97.20
20528;DHT22;23612;50.894;10.700;2023-05-15T15:34:55;20.90;95.90
20528;DHT22;23612;50.894;10.700;2023-05-15T15:37:21;20.90;95.90
20528;DHT22;23612;50.894;10.700;2023-05-15T15:39:47;20.90;96.70